createdAt,value
2019-05-05T00:01:57.189Z,5.40
2019-05-05T00:04:09.281Z,5.30
2019-05-05T00:06:11.509Z,5.30
2019-05-05T00:08:15.266Z,5.20
2019-05-05T00:10:25.613Z,5.20
2019-05-05T00:12:47.105Z,5.20
2019-05-05T00:14:58.585Z,5.20
2019-05-05T00:17:14.529Z,5.00
2019-05-05T00:19:29.004Z,5.00
2019-05-05T00:21:19.905Z,5.10
2019-05-05T00:23:21.624Z,5.10
2019-05-05T00:25:24.936Z,5.10
2019-05-05T00:27:26.715Z,5.10
2019-05-05T00:29:28.446Z,5.00
2019-05-05T00:31:30.249Z,4.90
2019-05-05T00:33:34.225Z,5.00
2019-05-05T00:35:36.068Z,4.90
2019-05-05T00:37:37.960Z,5.00
2019-05-05T00:39:39.647Z,5.00
2019-05-05T00:41:41.334Z,5.00
2019-05-05T00:43:44.962Z,4.80
2019-05-05T00:45:48.753Z,4.80
2019-05-05T00:47:56.381Z,4.70
2019-05-05T00:49:58.088Z,4.70
2019-05-05T00:52:00.382Z,4.80
2019-05-05T00:54:04.275Z,4.90
2019-05-05T00:56:05.654Z,5.00
2019-05-05T00:58:07.356Z,5.10
2019-05-05T01:00:27.811Z,5.20
2019-05-05T01:02:37.801Z,5.30
2019-05-05T01:04:58.842Z,5.20
2019-05-05T01:07:00.535Z,5.20
2019-05-05T01:09:04.295Z,5.20
2019-05-05T01:11:06.301Z,5.30
2019-05-05T01:13:08.247Z,5.30
2019-05-05T01:15:10.241Z,5.20
2019-05-05T01:17:12.012Z,5.20
2019-05-05T01:19:14.992Z,5.10
2019-05-05T01:21:16.853Z,5.10
2019-05-05T01:23:18.656Z,5.10
2019-05-05T01:25:20.433Z,5.10
2019-05-05T01:27:22.254Z,5.00
2019-05-05T01:29:25.273Z,5.10
2019-05-05T01:31:27.268Z,5.00
2019-05-05T01:33:57.701Z,4.90
2019-05-05T01:35:59.498Z,4.70
2019-05-05T01:38:07.028Z,4.60
2019-05-05T01:40:28.014Z,4.60
2019-05-05T01:42:29.912Z,4.70
2019-05-05T01:44:31.585Z,4.80
2019-05-05T01:46:35.158Z,4.80
2019-05-05T01:48:37.005Z,4.90
2019-05-05T01:50:38.884Z,4.90
2019-05-05T01:52:40.597Z,4.80
2019-05-05T01:54:44.454Z,4.80
2019-05-05T01:56:46.368Z,4.70
2019-05-05T01:58:48.741Z,4.70
2019-05-05T02:00:50.524Z,4.60
2019-05-05T02:02:52.418Z,4.70
2019-05-05T02:04:55.298Z,4.70
2019-05-05T02:06:57.446Z,4.90
2019-05-05T02:08:59.334Z,4.90
2019-05-05T02:11:01.133Z,4.90
2019-05-05T02:13:04.612Z,4.90
2019-05-05T02:15:07.142Z,4.90
2019-05-05T03:09:21.854Z,4.70
2019-05-05T03:11:24.752Z,4.60
2019-05-05T03:13:28.527Z,4.60
2019-05-05T03:15:45.549Z,4.60
2019-05-05T03:17:47.504Z,4.50
2019-05-05T03:19:49.704Z,4.40
2019-05-05T03:21:54.460Z,4.40
2019-05-05T03:23:56.430Z,4.40
2019-05-05T03:25:58.429Z,4.40
2019-05-05T03:28:00.641Z,4.40
2019-05-05T03:30:04.961Z,4.40
2019-05-05T03:32:11.289Z,4.30
2019-05-05T03:34:11.335Z,4.40
2019-05-05T03:36:13.992Z,4.30
2019-05-05T03:38:15.966Z,4.30
2019-05-05T03:40:23.870Z,4.20
2019-05-05T03:42:44.167Z,4.10
2019-05-05T03:45:14.384Z,4.20
2019-05-05T03:47:16.664Z,4.20
2019-05-05T03:49:18.816Z,4.30
2019-05-05T03:51:21.346Z,4.30
2019-05-05T03:53:24.585Z,4.30
2019-05-05T03:55:26.742Z,4.30
2019-05-05T03:57:29.137Z,4.30
2019-05-05T03:59:31.145Z,4.40
2019-05-05T04:01:39.642Z,4.30
2019-05-05T04:03:43.521Z,4.30
2019-05-05T04:05:51.193Z,4.20
2019-05-05T04:07:54.545Z,4.10
2019-05-05T04:09:56.457Z,4.20
2019-05-05T04:11:58.372Z,4.20
2019-05-05T04:14:00.970Z,4.10
2019-05-05T04:16:24.829Z,4.10
2019-05-05T04:18:28.392Z,4.20
2019-05-05T04:20:38.251Z,4.20
2019-05-05T04:22:39.937Z,4.20
2019-05-05T04:24:43.588Z,4.20
2019-05-05T04:26:45.461Z,4.00
2019-05-05T04:28:47.152Z,3.90
2019-05-05T04:30:48.872Z,3.90
2019-05-05T04:32:50.597Z,3.80
2019-05-05T04:34:54.135Z,3.70
2019-05-05T04:36:58.328Z,3.70
2019-05-05T04:39:00.142Z,3.80
2019-05-05T04:41:03.514Z,3.90
2019-05-05T04:43:05.821Z,3.90
2019-05-05T04:45:07.713Z,3.90
2019-05-05T04:47:15.807Z,4.10
2019-05-05T04:49:29.781Z,4.10
2019-05-05T04:51:46.906Z,4.20
2019-05-05T04:54:00.113Z,4.30
2019-05-05T04:56:04.052Z,4.30
2019-05-05T04:58:05.729Z,4.30
2019-05-05T05:00:07.732Z,4.20
2019-05-05T05:02:38.133Z,4.20
2019-05-05T05:04:53.541Z,4.10
2019-05-05T05:06:56.344Z,4.00
2019-05-05T05:08:58.029Z,3.90
2019-05-05T05:10:59.727Z,4.00
2019-05-05T05:13:01.422Z,4.10
2019-05-05T05:15:04.389Z,4.00
2019-05-05T05:17:11.033Z,4.00
2019-05-05T05:19:13.749Z,4.00
2019-05-05T05:21:15.644Z,4.10
2019-05-05T05:23:17.760Z,4.20
2019-05-05T05:25:19.457Z,4.20
2019-05-05T05:27:21.252Z,4.30
2019-05-05T05:29:23.899Z,4.30
2019-05-05T05:31:25.772Z,4.30
2019-05-05T05:33:27.754Z,4.40
2019-05-05T05:35:30.474Z,4.40
2019-05-05T05:37:34.150Z,4.50
2019-05-05T05:39:43.991Z,4.50
2019-05-05T05:41:46.346Z,4.60
2019-05-05T05:44:06.733Z,4.60
2019-05-05T05:46:20.614Z,4.70
2019-05-05T05:48:27.957Z,4.80
2019-05-05T05:50:33.931Z,5.00
2019-05-05T05:52:36.199Z,5.10
2019-05-05T05:54:37.889Z,5.20
2019-05-05T05:56:39.692Z,5.20
2019-05-05T05:58:41.418Z,5.20
2019-05-05T06:00:44.240Z,5.40
2019-05-05T06:02:46.213Z,5.40
2019-05-05T06:04:47.937Z,5.60
2019-05-05T06:06:49.719Z,5.60
2019-05-05T06:08:51.408Z,5.60
2019-05-05T06:10:54.667Z,5.80
2019-05-05T06:12:56.709Z,6.00
2019-05-05T06:14:58.505Z,6.00
2019-05-05T06:17:00.226Z,6.10
2019-05-05T06:19:03.615Z,6.20
2019-05-05T06:21:05.668Z,6.20
2019-05-05T06:23:07.367Z,6.20
2019-05-05T06:25:09.370Z,6.30
2019-05-05T06:27:11.203Z,6.40
2019-05-05T06:29:14.574Z,6.50
2019-05-05T06:31:16.499Z,6.60
2019-05-05T06:33:18.422Z,6.60
2019-05-05T06:35:20.441Z,6.60
2019-05-05T06:37:23.823Z,6.70
2019-05-05T06:39:26.040Z,6.80
2019-05-05T06:41:59.565Z,6.90
2019-05-05T06:44:11.464Z,7.00
2019-05-05T06:46:15.526Z,7.20
2019-05-05T06:48:17.490Z,7.30
2019-05-05T06:50:19.189Z,7.30
2019-05-05T06:52:20.885Z,7.40
2019-05-05T06:54:24.162Z,7.40
2019-05-05T06:56:25.957Z,7.50
2019-05-05T06:58:27.653Z,7.50
2019-05-05T07:00:29.372Z,7.50
2019-05-05T07:02:31.069Z,7.60
2019-05-05T07:04:34.037Z,7.60
2019-05-05T07:06:35.908Z,7.60
2019-05-05T07:08:37.611Z,7.70
2019-05-05T07:10:39.313Z,7.80
2019-05-05T07:12:41.028Z,8.00
2019-05-05T07:14:44.548Z,8.10
2019-05-05T07:16:46.569Z,8.00
2019-05-05T07:18:48.295Z,8.00
2019-05-05T07:20:49.996Z,8.10
2019-05-05T07:22:59.765Z,8.20
2019-05-05T07:24:55.333Z,8.30
2019-05-05T07:26:57.101Z,8.30
2019-05-05T07:28:58.800Z,8.40
2019-05-05T07:31:00.611Z,8.60
2019-05-05T07:33:04.453Z,8.70
2019-05-05T07:35:14.413Z,8.80
2019-05-05T07:37:15.823Z,8.80
2019-05-05T07:39:17.703Z,8.70
2019-05-05T07:41:19.839Z,8.70
2019-05-05T07:43:21.516Z,8.60
2019-05-05T07:45:25.764Z,8.70
2019-05-05T07:47:26.833Z,8.80
2019-05-05T07:49:28.525Z,9.00
2019-05-05T07:51:30.225Z,9.10
2019-05-05T07:53:33.512Z,9.30
2019-05-05T07:55:35.555Z,9.60
2019-05-05T07:57:37.223Z,9.60
2019-05-05T07:59:39.314Z,9.60
2019-05-05T08:01:43.439Z,9.70
2019-05-05T08:03:44.796Z,9.80
2019-05-05T08:05:46.617Z,9.80
2019-05-05T08:07:48.401Z,9.90
2019-05-05T08:09:50.101Z,10.10
2019-05-05T08:11:54.027Z,10.30
2019-05-05T08:13:55.811Z,10.50
2019-05-05T08:16:00.208Z,10.50
2019-05-05T08:18:17.905Z,10.30
2019-05-05T08:20:23.865Z,10.40
2019-05-05T08:22:25.697Z,10.50
2019-05-05T08:24:50.362Z,10.70
2019-05-05T08:27:00.763Z,11.10
2019-05-05T08:29:21.202Z,11.40
2019-05-05T08:31:27.750Z,11.30
2019-05-05T08:33:29.615Z,11.10
2019-05-05T08:35:31.542Z,11.40
2019-05-05T08:37:34.314Z,11.40
2019-05-05T08:39:36.262Z,11.10
2019-05-05T08:41:37.964Z,11.00
2019-05-05T08:43:39.673Z,10.80
2019-05-05T08:45:41.456Z,10.90
2019-05-05T08:47:43.625Z,11.20
2019-05-05T08:49:45.526Z,11.60
2019-05-05T08:51:47.772Z,11.70
2019-05-05T08:53:49.497Z,11.80
2019-05-05T08:55:51.188Z,11.80
2019-05-05T08:57:53.983Z,11.40
2019-05-05T08:59:56.065Z,11.20
2019-05-05T09:01:57.753Z,11.10
2019-05-05T09:03:59.549Z,11.20
2019-05-05T09:06:01.338Z,11.60
2019-05-05T09:08:04.485Z,12.00
2019-05-05T09:10:07.428Z,12.50
2019-05-05T09:12:09.112Z,12.80
2019-05-05T09:14:10.802Z,12.90
2019-05-05T09:16:14.371Z,12.90
2019-05-05T09:18:16.189Z,12.90
2019-05-05T09:20:17.966Z,12.80
2019-05-05T09:22:19.709Z,12.50
2019-05-05T09:24:34.085Z,11.80
2019-05-05T09:26:50.298Z,11.40
2019-05-05T09:29:26.638Z,11.30
2019-05-05T09:31:28.336Z,11.20
2019-05-05T09:33:30.066Z,11.40
2019-05-05T09:35:34.148Z,11.50
2019-05-05T09:37:35.576Z,11.60
2019-05-05T09:39:37.276Z,11.60
2019-05-05T09:41:38.982Z,11.90
2019-05-05T09:43:40.748Z,12.50
2019-05-05T09:45:44.132Z,12.70
2019-05-05T09:47:46.059Z,12.40
2019-05-05T09:49:47.854Z,12.10
2019-05-05T09:51:49.747Z,11.80
2019-05-05T09:53:54.053Z,12.10
2019-05-05T09:55:55.201Z,12.50
2019-05-05T09:57:56.977Z,12.40
2019-05-05T10:00:08.027Z,12.40
2019-05-05T10:02:10.034Z,12.80
2019-05-05T10:04:13.867Z,13.10
2019-05-05T10:06:15.643Z,13.40
2019-05-05T10:08:17.341Z,13.80
2019-05-05T10:10:19.327Z,13.90
2019-05-05T10:12:21.001Z,14.00
2019-05-05T10:14:22.712Z,14.40
2019-05-05T10:16:24.406Z,14.60
2019-05-05T10:18:26.193Z,14.60
2019-05-05T10:20:27.908Z,14.60
2019-05-05T10:22:29.600Z,14.70
2019-05-05T10:24:36.624Z,14.70
2019-05-05T10:26:38.314Z,14.70
2019-05-05T10:28:40.000Z,14.50
2019-05-05T10:30:41.796Z,14.30
2019-05-05T10:32:43.941Z,14.10
2019-05-05T10:34:59.842Z,14.40
2019-05-05T10:37:01.528Z,14.90
2019-05-05T10:39:10.009Z,15.10
2019-05-05T10:41:13.543Z,15.30
2019-05-05T10:43:15.397Z,15.80
2019-05-05T10:45:18.548Z,15.80
2019-05-05T10:47:20.224Z,15.70
2019-05-05T10:49:24.252Z,15.30
2019-05-05T10:51:25.784Z,15.30
2019-05-05T10:53:27.573Z,15.50
2019-05-05T10:55:29.617Z,15.30
2019-05-05T10:57:31.508Z,15.80
2019-05-05T10:59:34.409Z,16.00
2019-05-05T11:01:36.516Z,16.00
2019-05-05T11:03:38.356Z,15.60
2019-05-05T11:05:40.192Z,14.90
2019-05-05T11:07:42.090Z,14.40
2019-05-05T11:09:44.460Z,13.70
2019-05-05T11:11:46.417Z,13.00
2019-05-05T11:13:48.204Z,12.40
2019-05-05T11:15:49.924Z,12.20
2019-05-05T11:17:51.733Z,12.30
2019-05-05T11:19:53.573Z,12.20
2019-05-05T11:21:55.380Z,12.20
2019-05-05T11:23:57.091Z,12.30
2019-05-05T11:25:58.801Z,12.60
2019-05-05T11:28:03.430Z,12.80
2019-05-05T11:30:17.084Z,13.10
2019-05-05T11:32:38.580Z,13.60
2019-05-05T11:34:40.508Z,14.10
2019-05-05T11:36:55.138Z,14.50
2019-05-05T11:38:56.825Z,14.50
2019-05-05T11:40:58.628Z,14.40
2019-05-05T11:43:00.333Z,14.30
2019-05-05T11:45:04.072Z,14.40
2019-05-05T11:47:06.052Z,14.40
2019-05-05T11:49:08.296Z,14.30
2019-05-05T11:51:10.090Z,14.00
2019-05-05T11:53:14.356Z,13.60
2019-05-05T11:55:15.976Z,13.60
2019-05-05T11:57:17.665Z,13.80
2019-05-05T11:59:19.471Z,13.70
2019-05-05T12:01:21.160Z,13.70
2019-05-05T12:03:22.951Z,13.80
2019-05-05T12:05:24.692Z,13.80
2019-05-05T12:07:26.397Z,13.80
2019-05-05T12:09:47.990Z,13.80
2019-05-05T12:11:50.369Z,13.90
2019-05-05T12:13:54.441Z,14.00
2019-05-05T12:16:00.249Z,14.10
2019-05-05T12:18:03.843Z,14.00
2019-05-05T12:20:06.585Z,14.20
2019-05-05T12:22:08.675Z,14.10
2019-05-05T12:24:24.853Z,13.90
2019-05-05T12:26:54.132Z,14.00
2019-05-05T12:29:07.802Z,14.00
2019-05-05T12:31:14.538Z,14.30
2019-05-05T12:33:16.228Z,14.20
2019-05-05T12:35:17.956Z,14.60
2019-05-05T12:37:19.655Z,15.90
2019-05-05T12:39:21.372Z,16.70
2019-05-05T12:41:23.872Z,17.30
2019-05-05T12:43:25.717Z,17.30
2019-05-05T12:45:30.173Z,17.30
2019-05-05T12:47:51.741Z,17.30
2019-05-05T12:49:54.499Z,17.50
2019-05-05T12:51:56.609Z,18.50
2019-05-05T12:53:58.440Z,18.80
2019-05-05T12:56:00.385Z,18.90
2019-05-05T12:58:03.483Z,19.00
2019-05-05T13:00:05.809Z,19.10
2019-05-05T13:02:07.593Z,19.70
2019-05-05T13:04:09.285Z,19.50
2019-05-05T13:06:11.109Z,19.20
2019-05-05T13:08:14.345Z,18.70
2019-05-05T13:10:19.490Z,17.60
2019-05-05T13:12:21.284Z,17.00
2019-05-05T13:14:22.998Z,16.90
2019-05-05T13:16:25.173Z,16.80
2019-05-05T13:18:27.076Z,16.60
2019-05-05T13:20:51.336Z,17.20
2019-05-05T13:23:28.108Z,17.20
2019-05-05T13:25:59.497Z,17.40
2019-05-05T13:28:01.441Z,17.50
2019-05-05T13:30:05.051Z,16.70
2019-05-05T13:32:06.965Z,16.60
2019-05-05T13:34:08.660Z,17.10
2019-05-05T13:36:10.818Z,17.70
2019-05-05T13:38:14.462Z,18.40
2019-05-05T13:40:17.313Z,19.20
2019-05-05T13:42:19.014Z,19.60
2019-05-05T13:44:39.072Z,19.40
2019-05-05T13:46:40.780Z,19.60
2019-05-05T13:48:44.381Z,20.30
2019-05-05T13:50:48.581Z,21.20
2019-05-05T13:52:50.371Z,21.80
2019-05-05T13:54:54.243Z,21.90
2019-05-05T13:56:55.856Z,21.90
2019-05-05T13:58:57.553Z,21.30
2019-05-05T14:00:59.616Z,21.10
2019-05-05T14:03:03.741Z,21.00
2019-05-05T14:05:06.137Z,20.90
2019-05-05T14:07:07.928Z,21.30
2019-05-05T14:09:09.730Z,21.30
2019-05-05T14:11:11.522Z,20.70
2019-05-05T14:13:15.095Z,20.00
2019-05-05T14:15:17.830Z,20.10
2019-05-05T14:17:19.517Z,20.40
2019-05-05T14:19:21.412Z,20.90
2019-05-05T14:21:24.489Z,20.50
2019-05-05T14:23:27.165Z,19.80
2019-05-05T14:25:29.640Z,19.90
2019-05-05T14:27:31.925Z,19.90
2019-05-05T14:29:54.699Z,19.90
2019-05-05T14:31:56.437Z,20.00
2019-05-05T14:34:00.738Z,19.20
2019-05-05T14:36:10.089Z,18.60
2019-05-05T14:38:16.473Z,18.70
2019-05-05T14:40:18.442Z,19.10
2019-05-05T14:42:20.408Z,19.10
2019-05-05T14:44:23.902Z,19.50
2019-05-05T14:46:25.860Z,19.60
2019-05-05T14:48:27.545Z,20.00
2019-05-05T14:50:29.360Z,19.60
2019-05-05T14:52:31.153Z,19.20
2019-05-05T14:54:34.151Z,18.90
2019-05-05T14:56:36.750Z,18.70
2019-05-05T14:58:38.609Z,18.20
2019-05-05T15:00:40.502Z,17.60
2019-05-05T15:02:43.877Z,17.00
2019-05-05T15:04:45.669Z,16.60
2019-05-05T15:06:52.141Z,16.50
2019-05-05T15:09:13.886Z,16.30
2019-05-05T15:11:20.090Z,16.30
2019-05-05T15:13:21.918Z,16.10
2019-05-05T15:15:24.969Z,15.80
2019-05-05T15:17:26.706Z,15.30
2019-05-05T15:19:28.403Z,15.00
2019-05-05T15:21:30.330Z,14.60
2019-05-05T15:23:34.355Z,14.10
2019-05-05T15:25:35.909Z,14.20
2019-05-05T15:27:37.597Z,14.10
2019-05-05T15:29:39.345Z,13.50
2019-05-05T15:31:41.037Z,13.50
2019-05-05T15:33:44.123Z,13.10
2019-05-05T15:35:46.584Z,12.90
2019-05-05T15:37:48.481Z,12.80
2019-05-05T15:39:50.624Z,12.80
2019-05-05T15:41:54.161Z,12.70
2019-05-05T15:43:56.017Z,12.80
2019-05-05T15:45:57.719Z,12.80
2019-05-05T15:47:59.433Z,12.90
2019-05-05T15:50:01.121Z,12.80
2019-05-05T15:52:07.227Z,12.80
2019-05-05T15:54:09.113Z,12.70
2019-05-05T15:56:10.837Z,12.60
2019-05-05T15:58:14.199Z,12.60
2019-05-05T16:00:16.993Z,12.50
2019-05-05T16:02:18.684Z,12.50
2019-05-05T16:04:20.394Z,12.40
2019-05-05T16:06:23.751Z,12.30
2019-05-05T16:08:25.935Z,12.30
2019-05-05T16:10:27.633Z,12.40
2019-05-05T16:12:34.065Z,12.40
2019-05-05T16:14:35.631Z,12.40
2019-05-05T16:16:55.781Z,12.40
2019-05-05T16:19:09.167Z,12.30
2019-05-05T16:21:31.521Z,12.40
2019-05-05T16:23:36.078Z,12.30
2019-05-05T16:25:37.753Z,12.40
2019-05-05T16:27:40.383Z,12.40
2019-05-05T16:29:44.081Z,12.30
2019-05-05T16:31:45.669Z,12.30
2019-05-05T16:33:48.705Z,12.40
2019-05-05T16:35:50.565Z,12.20
2019-05-05T16:37:52.297Z,12.20
2019-05-05T16:39:55.030Z,12.20
2019-05-05T16:41:56.955Z,12.30
2019-05-05T16:43:58.664Z,12.40
2019-05-05T16:46:00.449Z,12.50
2019-05-05T16:48:03.912Z,12.50
2019-05-05T16:50:06.578Z,12.60
2019-05-05T16:52:14.873Z,12.50
2019-05-05T16:54:24.256Z,12.40
2019-05-05T16:56:26.316Z,12.30
2019-05-05T16:58:28.017Z,12.10
2019-05-05T17:00:30.272Z,12.00
2019-05-05T17:02:33.288Z,11.80
2019-05-05T17:04:35.714Z,11.70
2019-05-05T17:06:37.844Z,11.70
2019-05-05T17:08:39.641Z,11.80
2019-05-05T17:10:43.388Z,11.80
2019-05-05T17:12:45.028Z,11.90
2019-05-05T17:15:06.542Z,11.80
2019-05-05T17:17:23.284Z,11.90
2019-05-05T17:19:33.867Z,12.00
2019-05-05T17:21:53.824Z,11.80
2019-05-05T17:23:55.730Z,11.70
2019-05-05T17:25:57.575Z,11.60
2019-05-05T17:27:59.272Z,11.50
2019-05-05T17:30:01.081Z,11.50
2019-05-05T17:32:03.229Z,11.50
2019-05-05T17:34:04.949Z,11.50
2019-05-05T17:36:06.640Z,11.50
2019-05-05T17:38:13.691Z,11.40
2019-05-05T17:40:25.426Z,11.50
2019-05-05T17:42:44.057Z,11.40
2019-05-05T17:45:08.245Z,11.20
2019-05-05T17:47:17.325Z,11.00
2019-05-05T17:49:32.683Z,10.90
2019-05-05T17:51:43.536Z,10.80
2019-05-05T17:53:54.665Z,10.70
2019-05-05T17:55:57.296Z,10.60
2019-05-05T17:58:02.355Z,10.50
2019-05-05T18:00:04.313Z,10.40
2019-05-05T18:02:06.538Z,10.30
2019-05-05T18:04:08.456Z,10.10
2019-05-05T18:06:30.509Z,10.10
2019-05-05T18:08:54.086Z,10.20
2019-05-05T18:10:56.221Z,10.30
2019-05-05T18:13:17.597Z,10.30
2019-05-05T18:15:43.444Z,10.30
2019-05-05T18:17:45.367Z,10.30
2019-05-05T18:19:47.154Z,10.40
2019-05-05T18:21:48.956Z,10.30
2019-05-05T18:23:50.679Z,10.30
2019-05-05T18:25:52.366Z,10.30
2019-05-05T18:27:54.173Z,10.20
2019-05-05T18:29:55.873Z,10.10
2019-05-05T18:31:57.577Z,10.20
2019-05-05T18:33:59.641Z,10.20
2019-05-05T18:36:01.532Z,10.20
2019-05-05T18:38:04.099Z,10.10
2019-05-05T18:40:06.421Z,10.00
2019-05-05T18:42:34.024Z,10.00
2019-05-05T18:44:38.990Z,10.00
2019-05-05T18:46:41.261Z,10.10
2019-05-05T18:48:43.087Z,10.10
2019-05-05T18:50:44.938Z,10.00
2019-05-05T18:52:47.315Z,10.00
2019-05-05T18:54:49.240Z,10.00
2019-05-05T18:56:50.986Z,9.90
2019-05-05T18:58:54.231Z,9.90
2019-05-05T19:01:04.334Z,9.90
2019-05-05T19:03:17.921Z,9.80
2019-05-05T19:05:20.309Z,9.70
2019-05-05T19:07:33.693Z,9.70
2019-05-05T19:09:35.568Z,9.60
2019-05-05T19:11:37.302Z,9.50
2019-05-05T19:13:39.129Z,9.40
2019-05-05T19:15:40.925Z,9.40
2019-05-05T19:26:54.241Z,9.20
2019-05-05T19:28:56.797Z,9.20
2019-05-05T19:30:58.636Z,9.20
2019-05-05T19:33:00.353Z,9.10
2019-05-05T19:35:03.988Z,9.20
2019-05-05T19:37:05.682Z,9.20
2019-05-05T19:39:07.393Z,9.20
2019-05-05T19:41:09.249Z,9.20
2019-05-05T19:43:10.944Z,9.20
2019-05-05T19:45:13.456Z,9.20
2019-05-05T19:47:18.181Z,9.20
2019-05-05T19:49:19.894Z,9.20
2019-05-05T19:51:21.595Z,9.20
2019-05-05T19:53:24.709Z,9.10
2019-05-05T19:55:26.718Z,9.10
2019-05-05T19:57:28.505Z,9.10
2019-05-05T19:59:30.221Z,9.10
2019-05-05T20:01:37.104Z,9.20
2019-05-05T20:03:35.973Z,9.30
2019-05-05T20:05:37.949Z,9.10
2019-05-05T20:07:40.068Z,8.90
2019-05-05T20:09:43.624Z,8.90
2019-05-05T20:11:45.369Z,8.80
2019-05-05T20:13:47.223Z,8.70
2019-05-05T20:15:55.918Z,8.60
2019-05-05T20:17:57.621Z,8.60
2019-05-05T20:19:59.432Z,8.60
2019-05-05T20:22:01.406Z,8.40
2019-05-05T20:24:03.712Z,8.20
2019-05-05T20:26:05.633Z,8.10
2019-05-05T20:28:07.394Z,8.10
2019-05-05T20:30:09.435Z,8.20
2019-05-05T20:32:13.759Z,8.20
2019-05-05T20:34:25.422Z,8.20
2019-05-05T20:36:27.600Z,8.10
2019-05-05T20:38:39.404Z,7.90
2019-05-05T20:40:44.187Z,7.90
2019-05-05T20:42:45.851Z,7.90
2019-05-05T20:44:47.707Z,7.90
2019-05-05T20:46:49.433Z,7.90
2019-05-05T20:48:51.185Z,7.80
2019-05-05T20:50:54.677Z,7.70
2019-05-05T20:52:56.483Z,7.70
2019-05-05T20:54:58.228Z,7.70
2019-05-05T20:57:00.174Z,7.70
2019-05-05T20:59:02.468Z,7.60
2019-05-05T21:01:04.848Z,7.50
2019-05-05T21:03:06.889Z,7.50
2019-05-05T21:05:08.896Z,7.50
2019-05-05T21:07:10.697Z,7.40
2019-05-05T21:09:14.146Z,7.30
2019-05-05T21:11:16.078Z,7.20
2019-05-05T21:13:17.798Z,7.20
2019-05-05T21:15:19.497Z,7.10
2019-05-05T21:17:21.240Z,7.10
2019-05-05T21:19:24.774Z,7.00
2019-05-05T21:21:28.157Z,7.00
2019-05-05T21:23:36.647Z,7.00
2019-05-05T21:25:40.742Z,7.00
2019-05-05T21:27:43.584Z,7.00
2019-05-05T21:29:45.405Z,6.90
2019-05-05T21:31:47.316Z,6.90
2019-05-05T21:33:49.078Z,6.80
2019-05-05T21:35:50.860Z,6.80
2019-05-05T21:37:54.322Z,6.80
2019-05-05T21:39:56.357Z,6.80
2019-05-05T21:41:58.054Z,6.80
2019-05-05T21:43:59.981Z,6.70
2019-05-05T21:46:01.809Z,6.70
2019-05-05T21:48:04.323Z,6.80
2019-05-05T21:50:08.497Z,6.70
2019-05-05T21:52:20.404Z,6.70
2019-05-05T21:54:39.569Z,6.70
2019-05-05T21:57:04.364Z,6.70
2019-05-05T21:59:06.245Z,6.70
2019-05-05T22:01:14.862Z,6.60
2019-05-05T22:03:23.658Z,6.60
2019-05-05T22:05:25.666Z,6.60
2019-05-05T22:07:27.349Z,6.60
2019-05-05T22:09:29.161Z,6.60
2019-05-05T22:11:30.854Z,6.60
2019-05-05T22:13:36.297Z,6.50
2019-05-05T22:15:36.178Z,6.50
2019-05-05T22:17:37.890Z,6.50
2019-05-05T22:19:45.381Z,6.50
2019-05-05T22:21:54.405Z,6.40
2019-05-05T22:24:15.862Z,6.40
2019-05-05T22:26:17.822Z,6.40
2019-05-05T22:28:19.529Z,6.40
2019-05-05T22:30:23.576Z,6.40
2019-05-05T22:32:25.233Z,6.40
2019-05-05T22:34:26.990Z,6.30
2019-05-05T22:36:28.669Z,6.30
2019-05-05T22:38:30.360Z,6.30
2019-05-05T22:40:34.128Z,6.30
2019-05-05T22:42:35.782Z,6.30
2019-05-05T22:44:37.485Z,6.30
2019-05-05T22:46:39.197Z,6.30
2019-05-05T22:48:41.084Z,6.30
2019-05-05T22:50:43.658Z,6.20
2019-05-05T22:52:45.792Z,6.20
2019-05-05T22:54:47.510Z,6.20
2019-05-05T22:56:49.291Z,6.30
2019-05-05T22:58:50.960Z,6.20
2019-05-05T23:00:54.674Z,6.20
2019-05-05T23:03:04.470Z,6.20
2019-05-05T23:05:14.672Z,6.20
2019-05-05T23:07:24.129Z,6.20
2019-05-05T23:09:26.005Z,6.20
2019-05-05T23:11:27.709Z,6.10
2019-05-05T23:13:29.397Z,6.20
2019-05-05T23:15:31.853Z,6.20
2019-05-05T23:17:46.048Z,6.20
2019-05-05T23:19:53.969Z,6.10
2019-05-05T23:22:06.139Z,6.00
2019-05-05T23:24:30.295Z,6.00
2019-05-05T23:26:35.759Z,6.00
2019-05-05T23:28:37.333Z,6.00
2019-05-05T23:30:41.871Z,6.00
2019-05-05T23:32:43.888Z,6.00
2019-05-05T23:34:45.749Z,6.00
2019-05-05T23:36:47.452Z,6.10
2019-05-05T23:38:49.145Z,6.20
2019-05-05T23:40:50.961Z,6.20
2019-05-05T23:42:54.217Z,6.20
2019-05-05T23:44:56.160Z,6.10
2019-05-05T23:46:57.872Z,6.00
2019-05-05T23:48:59.898Z,6.00
2019-05-05T23:51:01.593Z,6.10
2019-05-05T23:53:03.301Z,6.00
2019-05-05T23:55:05.114Z,6.00
2019-05-05T23:57:06.853Z,6.00
2019-05-05T23:59:08.672Z,6.00
